createdAt,value
2023-04-22T00:00:28.142Z,0.00
2023-04-22T00:01:28.138Z,0.00
2023-04-22T00:02:28.175Z,0.00
2023-04-22T00:03:28.248Z,0.00
2023-04-22T00:04:28.337Z,0.00
2023-04-22T00:05:28.145Z,0.00
2023-04-22T00:06:28.090Z,0.00
2023-04-22T00:07:28.099Z,0.00
2023-04-22T00:08:28.051Z,0.00
2023-04-22T00:09:28.042Z,0.00
2023-04-22T00:10:28.034Z,0.00
2023-04-22T00:11:28.020Z,0.00
2023-04-22T00:12:28.023Z,0.00
2023-04-22T00:13:28.004Z,0.00
2023-04-22T00:14:27.986Z,0.00
2023-04-22T00:15:27.992Z,0.00
2023-04-22T00:16:28.005Z,0.00
2023-04-22T00:17:28.039Z,0.00
2023-04-22T00:18:27.941Z,0.00
2023-04-22T00:19:27.927Z,0.00
2023-04-22T00:20:27.917Z,0.00
2023-04-22T00:21:27.907Z,0.00
2023-04-22T00:22:27.900Z,0.00
2023-04-22T00:23:27.910Z,0.00
2023-04-22T00:24:27.879Z,0.00
2023-04-22T00:25:27.872Z,0.00
2023-04-22T00:26:27.852Z,0.00
2023-04-22T00:27:27.851Z,0.00
2023-04-22T00:28:27.823Z,0.00
2023-04-22T00:29:27.839Z,0.00
2023-04-22T00:30:27.804Z,0.00
2023-04-22T00:31:27.832Z,0.00
2023-04-22T00:32:27.822Z,0.00
2023-04-22T00:33:27.777Z,0.00
2023-04-22T00:34:27.754Z,0.00
2023-04-22T00:35:27.754Z,0.00
2023-04-22T00:36:27.738Z,0.00
2023-04-22T00:37:27.723Z,0.00
2023-04-22T00:38:27.715Z,0.00
2023-04-22T00:39:27.729Z,0.00
2023-04-22T00:40:27.700Z,0.00
2023-04-22T00:41:27.686Z,0.00
2023-04-22T00:42:27.679Z,0.00
2023-04-22T00:43:27.654Z,0.00
2023-04-22T00:44:27.644Z,0.00
2023-04-22T00:45:27.639Z,0.00
2023-04-22T00:46:27.711Z,0.00
2023-04-22T00:47:27.641Z,0.00
2023-04-22T00:48:28.983Z,0.00
2023-04-22T00:49:27.586Z,0.00
2023-04-22T00:50:27.573Z,0.00
2023-04-22T00:51:27.568Z,0.00
2023-04-22T00:52:27.552Z,0.00
2023-04-22T00:53:27.544Z,0.00
2023-04-22T00:54:27.532Z,0.00
2023-04-22T00:55:27.551Z,0.00
2023-04-22T00:56:27.507Z,0.00
2023-04-22T00:57:27.500Z,0.00
2023-04-22T00:58:27.485Z,0.00
2023-04-22T00:59:27.472Z,0.00
2023-04-22T01:00:27.580Z,0.00
2023-04-22T01:01:27.560Z,0.00
2023-04-22T01:02:27.600Z,0.00
2023-04-22T01:03:27.562Z,0.00
2023-04-22T01:04:27.461Z,0.00
2023-04-22T01:05:27.408Z,0.00
2023-04-22T01:06:27.397Z,0.00
2023-04-22T01:07:27.383Z,0.00
2023-04-22T01:08:27.376Z,0.00
2023-04-22T01:09:27.368Z,0.00
2023-04-22T01:10:27.353Z,0.00
2023-04-22T01:11:27.367Z,0.00
2023-04-22T01:12:27.342Z,0.00
2023-04-22T01:13:27.318Z,0.00
2023-04-22T01:14:27.326Z,0.00
2023-04-22T01:15:27.311Z,0.00
2023-04-22T01:16:27.297Z,0.00
2023-04-22T01:17:27.320Z,0.00
2023-04-22T01:18:27.263Z,0.00
2023-04-22T01:19:27.257Z,0.00
2023-04-22T01:20:27.388Z,0.00
2023-04-22T01:21:27.235Z,0.00
2023-04-22T01:22:27.215Z,0.00
2023-04-22T01:23:27.216Z,0.00
2023-04-22T01:24:27.192Z,0.00
2023-04-22T01:25:27.193Z,0.00
2023-04-22T01:26:27.173Z,0.00
2023-04-22T01:27:27.186Z,0.00
2023-04-22T01:28:27.149Z,0.00
2023-04-22T01:29:27.143Z,0.00
2023-04-22T01:30:27.128Z,0.00
2023-04-22T01:31:27.138Z,0.00
2023-04-22T01:32:27.169Z,0.00
2023-04-22T01:33:27.101Z,0.00
2023-04-22T01:34:27.110Z,0.00
2023-04-22T01:35:27.074Z,0.00
2023-04-22T01:36:27.071Z,0.00
2023-04-22T01:37:27.056Z,0.00
2023-04-22T01:38:27.038Z,0.00
2023-04-22T01:39:27.031Z,0.00
2023-04-22T01:40:27.026Z,0.00
2023-04-22T01:41:27.006Z,0.00
2023-04-22T01:42:27.021Z,0.00
2023-04-22T01:43:27.006Z,0.00
2023-04-22T01:44:26.981Z,0.00
2023-04-22T01:45:26.969Z,0.00
2023-04-22T01:46:26.979Z,0.00
2023-04-22T01:47:26.944Z,0.00
2023-04-22T01:48:26.931Z,0.00
2023-04-22T01:49:26.916Z,0.00
2023-04-22T01:50:26.909Z,0.00
2023-04-22T01:51:26.894Z,0.00
2023-04-22T01:52:26.884Z,0.00
2023-04-22T01:53:26.880Z,0.00
2023-04-22T01:54:26.860Z,0.00
2023-04-22T01:55:26.847Z,0.00
2023-04-22T01:56:26.841Z,0.00
2023-04-22T01:57:26.839Z,0.00
2023-04-22T01:58:26.816Z,0.00
2023-04-22T01:59:26.829Z,0.00
2023-04-22T02:00:26.792Z,0.00
2023-04-22T02:01:26.862Z,0.00
2023-04-22T02:02:26.865Z,0.00
2023-04-22T02:03:26.880Z,0.00
2023-04-22T02:04:26.818Z,0.00
2023-04-22T02:05:26.732Z,0.00
2023-04-22T02:06:26.726Z,0.00
2023-04-22T02:07:26.713Z,0.00
2023-04-22T02:08:26.717Z,0.00
2023-04-22T02:09:26.690Z,0.00
2023-04-22T02:10:26.694Z,0.00
2023-04-22T02:11:26.675Z,0.00
2023-04-22T02:12:26.661Z,0.00
2023-04-22T02:13:26.644Z,0.00
2023-04-22T02:14:26.639Z,0.00
2023-04-22T02:15:26.658Z,0.00
2023-04-22T02:16:26.748Z,0.00
2023-04-22T02:17:26.616Z,0.00
2023-04-22T02:18:26.604Z,0.00
2023-04-22T02:19:26.630Z,0.00
2023-04-22T02:20:26.566Z,0.00
2023-04-22T02:21:26.557Z,0.00
2023-04-22T02:22:26.547Z,0.00
2023-04-22T02:23:26.556Z,0.00
2023-04-22T02:24:26.525Z,0.00
2023-04-22T02:25:26.513Z,0.00
2023-04-22T02:26:26.505Z,0.00
2023-04-22T02:27:26.504Z,0.00
2023-04-22T02:28:26.479Z,0.00
2023-04-22T02:29:26.465Z,0.00
2023-04-22T02:30:26.456Z,0.00
2023-04-22T02:31:26.541Z,0.00
2023-04-22T02:32:26.438Z,0.00
2023-04-22T02:33:26.442Z,0.00
2023-04-22T02:34:26.412Z,0.00
2023-04-22T02:35:26.396Z,0.00
2023-04-22T02:36:26.392Z,0.00
2023-04-22T02:37:26.380Z,0.00
2023-04-22T02:38:26.377Z,0.00
2023-04-22T02:39:26.353Z,0.00
2023-04-22T02:40:26.351Z,0.00
2023-04-22T02:41:26.343Z,0.00
2023-04-22T02:42:26.355Z,0.00
2023-04-22T02:43:26.464Z,0.00
2023-04-22T02:44:26.303Z,0.00
2023-04-22T02:45:26.287Z,0.00
2023-04-22T02:46:26.365Z,0.00
2023-04-22T02:47:26.312Z,0.00
2023-04-22T02:48:26.252Z,0.00
2023-04-22T02:49:26.246Z,0.00
2023-04-22T02:50:26.243Z,0.00
2023-04-22T02:51:26.225Z,0.00
2023-04-22T02:52:26.208Z,0.00
2023-04-22T02:53:26.199Z,0.00
2023-04-22T02:54:26.197Z,0.00
2023-04-22T02:55:26.181Z,0.00
2023-04-22T02:56:26.169Z,0.00
2023-04-22T02:57:26.153Z,0.00
2023-04-22T02:58:26.160Z,0.00
2023-04-22T02:59:26.140Z,0.00
2023-04-22T03:00:26.144Z,0.00
2023-04-22T03:01:26.329Z,0.00
2023-04-22T03:02:26.254Z,0.00
2023-04-22T03:03:26.358Z,0.00
2023-04-22T03:04:26.414Z,0.00
2023-04-22T03:05:26.229Z,0.00
2023-04-22T03:06:26.224Z,0.00
2023-04-22T03:07:26.049Z,0.00
2023-04-22T03:08:26.041Z,0.00
2023-04-22T03:09:26.019Z,0.00
2023-04-22T03:10:26.014Z,0.00
2023-04-22T03:11:25.999Z,0.00
2023-04-22T03:12:25.991Z,0.00
2023-04-22T03:13:25.972Z,0.00
2023-04-22T03:14:25.968Z,0.00
2023-04-22T03:15:25.951Z,0.00
2023-04-22T03:16:25.993Z,0.00
2023-04-22T03:17:25.992Z,0.00
2023-04-22T03:18:25.920Z,0.00
2023-04-22T03:19:25.932Z,0.00
2023-04-22T03:20:25.909Z,0.00
2023-04-22T03:21:25.889Z,0.00
2023-04-22T03:22:25.880Z,0.00
2023-04-22T03:23:25.873Z,0.00
2023-04-22T03:24:25.860Z,0.00
2023-04-22T03:25:25.842Z,0.00
2023-04-22T03:26:25.831Z,0.00
2023-04-22T03:27:25.820Z,0.00
2023-04-22T03:28:25.810Z,0.00
2023-04-22T03:29:25.792Z,0.00
2023-04-22T03:30:25.786Z,4.00
2023-04-22T03:31:25.794Z,4.00
2023-04-22T03:32:25.766Z,0.00
2023-04-22T03:33:25.783Z,0.00
2023-04-22T03:34:25.742Z,4.00
2023-04-22T03:35:25.753Z,4.00
2023-04-22T03:36:25.719Z,0.00
2023-04-22T03:37:25.713Z,4.00
2023-04-22T03:38:25.696Z,4.00
2023-04-22T03:39:25.691Z,4.00
2023-04-22T03:40:25.678Z,4.00
2023-04-22T03:41:25.663Z,8.00
2023-04-22T03:42:25.663Z,8.00
2023-04-22T03:43:25.643Z,12.00
2023-04-22T03:44:25.632Z,8.00
2023-04-22T03:45:25.624Z,12.00
2023-04-22T03:46:25.699Z,12.00
2023-04-22T03:47:25.647Z,16.00
2023-04-22T03:48:25.590Z,20.00
2023-04-22T03:49:25.575Z,24.00
2023-04-22T03:50:25.568Z,24.00
2023-04-22T03:51:25.574Z,28.00
2023-04-22T03:52:25.543Z,32.00
2023-04-22T03:53:25.531Z,36.00
2023-04-22T03:54:25.520Z,36.00
2023-04-22T03:55:25.517Z,44.00
2023-04-22T03:56:25.497Z,48.00
2023-04-22T03:57:25.480Z,52.00
2023-04-22T03:58:25.483Z,56.00
2023-04-22T03:59:25.461Z,60.00
2023-04-22T04:00:25.453Z,68.00
2023-04-22T04:01:25.452Z,76.00
2023-04-22T04:02:25.590Z,84.00
2023-04-22T04:03:27.833Z,92.00
2023-04-22T04:04:25.545Z,104.00
2023-04-22T04:05:25.517Z,120.00
2023-04-22T04:06:25.387Z,132.00
2023-04-22T04:07:25.394Z,144.00
2023-04-22T04:08:25.361Z,160.00
2023-04-22T04:09:25.351Z,180.00
2023-04-22T04:10:25.355Z,196.00
2023-04-22T04:11:25.326Z,220.00
2023-04-22T04:12:25.314Z,240.00
2023-04-22T04:13:25.302Z,256.00
2023-04-22T04:14:25.296Z,284.00
2023-04-22T04:15:25.292Z,308.00
2023-04-22T04:16:25.313Z,332.00
2023-04-22T04:17:25.289Z,360.00
2023-04-22T04:18:25.253Z,388.00
2023-04-22T04:19:25.239Z,412.00
2023-04-22T04:20:25.224Z,436.00
2023-04-22T04:21:25.223Z,464.00
2023-04-22T04:22:25.205Z,488.00
2023-04-22T04:23:25.216Z,508.00
2023-04-22T04:24:25.187Z,528.00
2023-04-22T04:25:25.169Z,552.00
2023-04-22T04:26:25.160Z,580.00
2023-04-22T04:27:25.147Z,608.00
2023-04-22T04:28:25.135Z,640.00
2023-04-22T04:29:25.130Z,676.00
2023-04-22T04:30:25.113Z,728.00
2023-04-22T04:31:25.168Z,784.00
2023-04-22T04:32:25.164Z,840.00
2023-04-22T04:33:25.085Z,896.00
2023-04-22T04:34:25.068Z,952.00
2023-04-22T04:35:25.056Z,1008.00
2023-04-22T04:36:25.045Z,1056.00
2023-04-22T04:37:25.036Z,1096.00
2023-04-22T04:38:25.031Z,1136.00
2023-04-22T04:39:25.031Z,1176.00
2023-04-22T04:40:24.998Z,1216.00
2023-04-22T04:41:24.988Z,1264.00
2023-04-22T04:42:24.975Z,1320.00
2023-04-22T04:43:24.973Z,1372.00
2023-04-22T04:44:24.955Z,1432.00
2023-04-22T04:45:24.939Z,1500.00
2023-04-22T04:46:24.998Z,1572.00
2023-04-22T04:47:24.927Z,1648.00
2023-04-22T04:48:24.933Z,1752.00
2023-04-22T04:49:24.900Z,1868.00
2023-04-22T04:50:24.886Z,2016.00
2023-04-22T04:51:24.870Z,2196.00
2023-04-22T04:52:24.861Z,2328.00
2023-04-22T04:53:24.867Z,2432.00
2023-04-22T04:54:24.858Z,2556.00
2023-04-22T04:55:24.851Z,2664.00
2023-04-22T04:56:25.055Z,2736.00
2023-04-22T04:57:25.087Z,2796.00
2023-04-22T04:58:24.797Z,2880.00
2023-04-22T04:59:24.786Z,2948.00
2023-04-22T05:00:24.792Z,3024.00
2023-04-22T05:01:24.840Z,3112.00
2023-04-22T05:02:25.128Z,3196.00
2023-04-22T05:03:25.053Z,3280.00
2023-04-22T05:04:24.923Z,3376.00
2023-04-22T05:05:24.919Z,3476.00
2023-04-22T05:06:25.484Z,3596.00
2023-04-22T05:07:24.704Z,3700.00
2023-04-22T05:08:24.911Z,3836.00
2023-04-22T05:09:24.673Z,4032.00
2023-04-22T05:10:24.709Z,4304.00
2023-04-22T05:11:24.703Z,4628.00
2023-04-22T05:12:24.806Z,4824.00
2023-04-22T05:13:24.781Z,5216.00
2023-04-22T05:14:24.740Z,5684.00
2023-04-22T05:15:24.605Z,5924.00
2023-04-22T05:16:24.662Z,6104.00
2023-04-22T05:17:24.611Z,6264.00
2023-04-22T05:18:24.576Z,6420.00
2023-04-22T05:19:24.563Z,6576.00
2023-04-22T05:20:24.636Z,6736.00
2023-04-22T05:21:24.627Z,6936.00
2023-04-22T05:22:24.538Z,7024.00
2023-04-22T05:23:24.538Z,6996.00
2023-04-22T05:24:24.522Z,7100.00
2023-04-22T05:25:24.497Z,7564.00
2023-04-22T05:26:24.499Z,8184.00
2023-04-22T05:27:24.496Z,8588.00
2023-04-22T05:28:24.462Z,8992.00
2023-04-22T05:29:24.465Z,9308.00
2023-04-22T05:30:24.442Z,10052.00
2023-04-22T05:31:24.495Z,10536.00
2023-04-22T05:32:24.717Z,10488.00
2023-04-22T05:33:24.417Z,10088.00
2023-04-22T05:34:24.399Z,10560.00
2023-04-22T05:35:24.421Z,11324.00
2023-04-22T05:36:24.377Z,11440.00
2023-04-22T05:37:24.366Z,12048.00
2023-04-22T05:38:24.374Z,12592.00
2023-04-22T05:39:24.342Z,12972.00
2023-04-22T05:40:24.328Z,13284.00
2023-04-22T05:41:24.317Z,13168.00
2023-04-22T05:42:24.309Z,12396.00
2023-04-22T05:43:24.377Z,12236.00
2023-04-22T05:44:24.376Z,12764.00
2023-04-22T05:45:24.273Z,12980.00
2023-04-22T05:46:24.386Z,12468.00
2023-04-22T05:47:24.291Z,11732.00
2023-04-22T05:48:24.260Z,10272.00
2023-04-22T05:49:24.261Z,9840.00
2023-04-22T05:50:24.218Z,11332.00
2023-04-22T05:51:24.204Z,12632.00
2023-04-22T05:52:24.198Z,12988.00
2023-04-22T05:53:24.185Z,9312.00
2023-04-22T05:54:24.175Z,8816.00
2023-04-22T05:55:24.174Z,9384.00
2023-04-22T05:56:24.161Z,10568.00
2023-04-22T05:57:24.143Z,10172.00
2023-04-22T05:58:24.139Z,9992.00
2023-04-22T05:59:24.137Z,10800.00
2023-04-22T06:00:24.102Z,10836.00
2023-04-22T06:01:24.682Z,11568.00
2023-04-22T06:02:24.216Z,11600.00
2023-04-22T06:03:24.414Z,12744.00
2023-04-22T06:04:24.571Z,13896.00
2023-04-22T06:05:24.157Z,13480.00
2023-04-22T06:06:24.045Z,14952.00
2023-04-22T06:07:24.057Z,14584.00
2023-04-22T06:08:24.015Z,14504.00
2023-04-22T06:09:24.005Z,16672.00
2023-04-22T06:10:23.995Z,18048.00
2023-04-22T06:11:23.979Z,20224.00
2023-04-22T06:12:23.977Z,20736.00
2023-04-22T06:13:23.960Z,20128.00
2023-04-22T06:14:23.944Z,17984.00
2023-04-22T06:15:23.956Z,15264.00
2023-04-22T06:16:23.926Z,15328.00
2023-04-22T06:17:23.923Z,14504.00
2023-04-22T06:18:23.995Z,13392.00
2023-04-22T06:19:23.903Z,13076.00
2023-04-22T06:20:23.880Z,11540.00
2023-04-22T06:21:23.870Z,10764.00
2023-04-22T06:22:23.857Z,10588.00
2023-04-22T06:23:23.860Z,10508.00
2023-04-22T06:24:23.839Z,10404.00
2023-04-22T06:25:23.825Z,10376.00
2023-04-22T06:26:23.812Z,10424.00
2023-04-22T06:27:23.812Z,10408.00
2023-04-22T06:28:23.796Z,10504.00
2023-04-22T06:29:23.811Z,10612.00
2023-04-22T06:30:23.787Z,10836.00
2023-04-22T06:31:23.840Z,11024.00
2023-04-22T06:32:23.743Z,11260.00
2023-04-22T06:33:23.735Z,11404.00
2023-04-22T06:34:23.749Z,11424.00
2023-04-22T06:35:23.709Z,11516.00
2023-04-22T06:36:23.697Z,11724.00
2023-04-22T06:37:23.698Z,12068.00
2023-04-22T06:38:23.679Z,12456.00
2023-04-22T06:39:23.666Z,12624.00
2023-04-22T06:40:23.672Z,12508.00
2023-04-22T06:41:23.694Z,12056.00
2023-04-22T06:42:23.628Z,12388.00
2023-04-22T06:43:23.617Z,12736.00
2023-04-22T06:44:23.607Z,12984.00
2023-04-22T06:45:23.601Z,13136.00
2023-04-22T06:46:23.648Z,13200.00
2023-04-22T06:47:23.642Z,13112.00
2023-04-22T06:48:23.567Z,12964.00
2023-04-22T06:49:23.560Z,12816.00
2023-04-22T06:50:23.551Z,12732.00
2023-04-22T06:51:23.536Z,12740.00
2023-04-22T06:52:24.245Z,12804.00
2023-04-22T06:53:23.514Z,12860.00
2023-04-22T06:54:23.495Z,12880.00
2023-04-22T06:55:23.491Z,12872.00
2023-04-22T06:56:23.471Z,12852.00
2023-04-22T06:57:23.463Z,12884.00
2023-04-22T06:58:23.453Z,12972.00
2023-04-22T06:59:23.943Z,13156.00
2023-04-22T07:00:23.430Z,13368.00
2023-04-22T07:01:23.447Z,13564.00
2023-04-22T07:02:23.450Z,13700.00
2023-04-22T07:03:23.740Z,13840.00
2023-04-22T07:04:23.478Z,14068.00
2023-04-22T07:05:23.373Z,14424.00
2023-04-22T07:06:23.363Z,14960.00
2023-04-22T07:07:23.348Z,15748.00
2023-04-22T07:08:23.351Z,16928.00
2023-04-22T07:09:23.327Z,18400.00
2023-04-22T07:10:23.312Z,18752.00
2023-04-22T07:11:23.307Z,16896.00
2023-04-22T07:12:23.307Z,15664.00
2023-04-22T07:13:23.284Z,14928.00
2023-04-22T07:14:23.297Z,14692.00
2023-04-22T07:15:23.330Z,16352.00
2023-04-22T07:16:23.291Z,20768.00
2023-04-22T07:17:23.276Z,22304.00
2023-04-22T07:18:23.225Z,22848.00
2023-04-22T07:19:23.237Z,21504.00
2023-04-22T07:20:23.198Z,17216.00
2023-04-22T07:21:23.210Z,30752.00
2023-04-22T07:22:23.177Z,39584.00
2023-04-22T07:23:23.169Z,31136.00
2023-04-22T07:24:23.155Z,36608.00
2023-04-22T07:25:23.146Z,18112.00
2023-04-22T07:26:23.157Z,17504.00
2023-04-22T07:27:23.154Z,25152.00
2023-04-22T07:28:23.124Z,25408.00
2023-04-22T07:29:23.100Z,34912.00
2023-04-22T07:30:23.097Z,31328.00
2023-04-22T07:31:23.099Z,41440.00
2023-04-22T07:32:23.107Z,43456.00
2023-04-22T07:33:23.059Z,45312.00
2023-04-22T07:34:23.044Z,42144.00
2023-04-22T07:35:23.061Z,46432.00
2023-04-22T07:36:23.271Z,47808.00
2023-04-22T07:37:23.018Z,43584.00
2023-04-22T07:38:23.017Z,30432.00
2023-04-22T07:39:23.000Z,33920.00
2023-04-22T07:40:22.978Z,29312.00
2023-04-22T07:41:22.972Z,40832.00
2023-04-22T07:42:22.957Z,30368.00
2023-04-22T07:43:22.947Z,41952.00
2023-04-22T07:44:22.936Z,24640.00
2023-04-22T07:45:22.928Z,23840.00
2023-04-22T07:46:23.110Z,21504.00
2023-04-22T07:47:23.000Z,22592.00
2023-04-22T07:48:22.905Z,42560.00
2023-04-22T07:49:22.886Z,27296.00
2023-04-22T07:50:22.869Z,20864.00
2023-04-22T07:51:22.887Z,19520.00
2023-04-22T07:52:22.843Z,20064.00
2023-04-22T07:53:22.843Z,21120.00
2023-04-22T07:54:22.834Z,22048.00
2023-04-22T07:55:22.819Z,23296.00
2023-04-22T07:56:22.799Z,23616.00
2023-04-22T07:57:22.793Z,25856.00
2023-04-22T07:58:22.785Z,45344.00
2023-04-22T07:59:22.774Z,30144.00
2023-04-22T08:00:22.783Z,30400.00
2023-04-22T08:01:22.836Z,33664.00
2023-04-22T08:02:22.847Z,30944.00
2023-04-22T08:03:22.964Z,38560.00
2023-04-22T08:04:23.138Z,29280.00
2023-04-22T08:05:22.755Z,27936.00
2023-04-22T08:06:22.701Z,27872.00
2023-04-22T08:08:22.673Z,38976.00
2023-04-22T08:09:22.687Z,31136.00
2023-04-22T08:10:22.780Z,27392.00
2023-04-22T08:11:22.668Z,26016.00
2023-04-22T08:12:22.665Z,27712.00
2023-04-22T08:13:22.625Z,33600.00
2023-04-22T08:14:22.611Z,32608.00
2023-04-22T08:15:22.602Z,33344.00
2023-04-22T08:16:22.718Z,48000.00
2023-04-22T08:17:22.573Z,37600.00
2023-04-22T08:18:22.561Z,31552.00
2023-04-22T08:19:22.551Z,29504.00
2023-04-22T08:20:22.646Z,52064.00
2023-04-22T08:21:22.530Z,47872.00
2023-04-22T08:22:22.537Z,36384.00
2023-04-22T08:23:22.539Z,42912.00
2023-04-22T08:24:22.493Z,51104.00
2023-04-22T08:25:22.484Z,33792.00
2023-04-22T08:26:22.470Z,43040.00
2023-04-22T08:27:22.465Z,39424.00
2023-04-22T08:28:22.446Z,52160.00
2023-04-22T08:29:22.438Z,43424.00
2023-04-22T08:30:22.525Z,44192.00
2023-04-22T08:31:22.476Z,38400.00
2023-04-22T08:32:22.456Z,49440.00
2023-04-22T08:33:22.425Z,44672.00
2023-04-22T08:34:22.411Z,47744.00
2023-04-22T08:35:22.383Z,55840.00
2023-04-22T08:36:22.376Z,53600.00
2023-04-22T08:37:22.359Z,52544.00
2023-04-22T08:38:22.338Z,49792.00
2023-04-22T08:39:22.383Z,42464.00
2023-04-22T08:40:22.461Z,52256.00
2023-04-22T08:41:22.320Z,51008.00
2023-04-22T08:42:22.296Z,49472.00
2023-04-22T08:43:22.313Z,48640.00
2023-04-22T08:44:22.295Z,44896.00
2023-04-22T08:45:22.516Z,54656.00
2023-04-22T08:46:22.257Z,54080.00
2023-04-22T08:47:22.346Z,47200.00
2023-04-22T08:48:22.233Z,47744.00
2023-04-22T08:49:22.229Z,47520.00
2023-04-22T08:50:22.224Z,48512.00
2023-04-22T08:51:22.202Z,52192.00
2023-04-22T08:52:22.197Z,50944.00
2023-04-22T08:53:24.375Z,59360.00
2023-04-22T08:54:22.166Z,47008.00
2023-04-22T08:55:22.178Z,50720.00
2023-04-22T08:56:22.177Z,57536.00
2023-04-22T08:57:22.137Z,75360.00
2023-04-22T08:58:22.129Z,63168.00
2023-04-22T08:59:22.122Z,48032.00
2023-04-22T09:00:22.103Z,57696.00
2023-04-22T09:01:22.139Z,62208.00
2023-04-22T09:02:22.094Z,50656.00
2023-04-22T09:03:22.140Z,45184.00
2023-04-22T09:04:22.174Z,55488.00
2023-04-22T09:05:22.054Z,52096.00
2023-04-22T09:06:22.044Z,59104.00
2023-04-22T09:07:22.036Z,68960.00
2023-04-22T09:08:22.023Z,51872.00
2023-04-22T09:09:22.014Z,53536.00
2023-04-22T09:10:21.996Z,65216.00
2023-04-22T09:11:22.021Z,93248.00
2023-04-22T09:12:21.974Z,83680.00
2023-04-22T09:13:21.971Z,83872.00
2023-04-22T09:14:21.960Z,77344.00
2023-04-22T09:15:21.938Z,86208.00
2023-04-22T09:16:21.953Z,86016.00
2023-04-22T09:17:21.935Z,81792.00
2023-04-22T09:18:21.957Z,82112.00
2023-04-22T09:19:21.955Z,80416.00
2023-04-22T09:20:21.943Z,81440.00
2023-04-22T09:21:21.880Z,73024.00
2023-04-22T09:22:21.898Z,79232.00
2023-04-22T09:23:21.858Z,79808.00
2023-04-22T09:24:21.850Z,75936.00
2023-04-22T09:25:21.838Z,80832.00
2023-04-22T09:26:21.857Z,78944.00
2023-04-22T09:27:21.843Z,80320.00
2023-04-22T09:28:21.809Z,78528.00
2023-04-22T09:29:21.807Z,80320.00
2023-04-22T09:30:21.784Z,76512.00
2023-04-22T09:31:21.822Z,74432.00
2023-04-22T09:32:21.802Z,75328.00
2023-04-22T09:33:21.754Z,76000.00
2023-04-22T09:34:21.744Z,72992.00
2023-04-22T09:35:21.736Z,77184.00
2023-04-22T09:36:21.722Z,75968.00
2023-04-22T09:37:21.707Z,73632.00
2023-04-22T09:38:21.701Z,81440.00
2023-04-22T09:39:21.696Z,77984.00
2023-04-22T09:40:21.682Z,73728.00
2023-04-22T09:41:21.676Z,75424.00
2023-04-22T09:42:21.656Z,72672.00
2023-04-22T09:43:21.689Z,70816.00
2023-04-22T09:44:21.662Z,72256.00
2023-04-22T09:45:21.632Z,67424.00
2023-04-22T09:46:21.772Z,53408.00
2023-04-22T09:47:21.608Z,63968.00
2023-04-22T09:48:21.595Z,74912.00
2023-04-22T09:49:21.594Z,75040.00
2023-04-22T09:50:21.585Z,73280.00
2023-04-22T09:51:21.563Z,74368.00
2023-04-22T09:52:21.561Z,78016.00
2023-04-22T09:53:21.550Z,75040.00
2023-04-22T09:54:21.539Z,73120.00
2023-04-22T09:55:21.544Z,77600.00
2023-04-22T09:56:21.553Z,78144.00
2023-04-22T09:57:21.503Z,77504.00
2023-04-22T09:58:21.518Z,69184.00
2023-04-22T09:59:21.507Z,78432.00
2023-04-22T10:00:21.471Z,76736.00
2023-04-22T10:01:21.478Z,75328.00
2023-04-22T10:02:21.532Z,84256.00
2023-04-22T10:03:21.483Z,79200.00
2023-04-22T10:04:21.574Z,77888.00
2023-04-22T10:05:21.416Z,77504.00
2023-04-22T10:06:21.408Z,72032.00
2023-04-22T10:07:21.422Z,70496.00
2023-04-22T10:08:21.401Z,72640.00
2023-04-22T10:09:21.397Z,74688.00
2023-04-22T10:10:21.366Z,75456.00
2023-04-22T10:11:21.362Z,76768.00
2023-04-22T10:12:32.787Z,75968.00
2023-04-22T10:13:22.543Z,74848.00
2023-04-22T10:14:21.322Z,77152.00
2023-04-22T10:15:21.333Z,72512.00
2023-04-22T10:16:21.334Z,73632.00
2023-04-22T10:17:21.371Z,71648.00
2023-04-22T10:18:21.285Z,74272.00
2023-04-22T10:19:21.306Z,71488.00
2023-04-22T10:20:21.286Z,71328.00
2023-04-22T10:21:21.267Z,75936.00
2023-04-22T10:22:21.292Z,76256.00
2023-04-22T10:23:21.339Z,75488.00
2023-04-22T10:24:21.390Z,74432.00
2023-04-22T10:25:21.334Z,75072.00
2023-04-22T10:26:21.293Z,75168.00
2023-04-22T10:27:21.333Z,65120.00
2023-04-22T10:28:21.327Z,58336.00
2023-04-22T10:29:21.175Z,63040.00
2023-04-22T10:30:21.450Z,49888.00
2023-04-22T10:31:21.278Z,55712.00
2023-04-22T10:32:21.158Z,48864.00
2023-04-22T10:33:21.170Z,65184.00
2023-04-22T10:34:21.109Z,49632.00
2023-04-22T10:35:21.109Z,52640.00
2023-04-22T10:36:21.084Z,85024.00
2023-04-22T10:37:21.085Z,67232.00
2023-04-22T10:38:21.075Z,82880.00
2023-04-22T10:39:21.055Z,82976.00
2023-04-22T10:40:21.055Z,76928.00
2023-04-22T10:41:21.033Z,75776.00
2023-04-22T10:42:21.112Z,71808.00
2023-04-22T10:43:21.211Z,71104.00
2023-04-22T10:44:21.003Z,74912.00
2023-04-22T10:45:20.993Z,75680.00
2023-04-22T10:46:21.096Z,80032.00
2023-04-22T10:47:20.995Z,46016.00
2023-04-22T10:48:20.965Z,49728.00
2023-04-22T10:49:20.953Z,81952.00
2023-04-22T10:50:20.940Z,74720.00
2023-04-22T10:51:20.930Z,91328.00
2023-04-22T10:52:21.020Z,46912.00
2023-04-22T10:53:20.914Z,55296.00
2023-04-22T10:54:20.919Z,42272.00
2023-04-22T10:55:20.892Z,52256.00
2023-04-22T10:56:20.888Z,46784.00
2023-04-22T10:57:20.874Z,90432.00
2023-04-22T10:58:20.861Z,87360.00
2023-04-22T10:59:20.846Z,79520.00
2023-04-22T11:00:20.840Z,75488.00
2023-04-22T11:01:20.858Z,71616.00
2023-04-22T11:02:20.886Z,74112.00
2023-04-22T11:03:21.094Z,77376.00
2023-04-22T11:04:21.018Z,76576.00
2023-04-22T11:05:20.809Z,79392.00
2023-04-22T11:06:20.780Z,83616.00
2023-04-22T11:07:20.856Z,81856.00
2023-04-22T11:08:20.785Z,84064.00
2023-04-22T11:09:20.763Z,88320.00
2023-04-22T11:10:20.744Z,93184.00
2023-04-22T11:11:20.751Z,87744.00
2023-04-22T11:12:20.714Z,37984.00
2023-04-22T11:13:20.727Z,29152.00
2023-04-22T11:14:20.707Z,29568.00
2023-04-22T11:15:20.684Z,34016.00
2023-04-22T11:16:22.288Z,57856.00
2023-04-22T11:17:20.710Z,86464.00
2023-04-22T11:18:20.655Z,82240.00
2023-04-22T11:19:20.713Z,81376.00
2023-04-22T11:20:20.650Z,81376.00
2023-04-22T11:21:20.623Z,83168.00
2023-04-22T11:22:20.613Z,88320.00
2023-04-22T11:23:20.600Z,85600.00
2023-04-22T11:24:20.600Z,82432.00
2023-04-22T11:25:20.583Z,84256.00
2023-04-22T11:26:20.573Z,84384.00
2023-04-22T11:27:20.557Z,82816.00
2023-04-22T11:28:21.588Z,79424.00
2023-04-22T11:29:20.576Z,78144.00
2023-04-22T11:30:20.532Z,85184.00
2023-04-22T11:31:20.643Z,78688.00
2023-04-22T11:32:20.503Z,77408.00
2023-04-22T11:33:20.509Z,74208.00
2023-04-22T11:34:20.527Z,74144.00
2023-04-22T11:35:20.494Z,68256.00
2023-04-22T11:36:20.468Z,64576.00
2023-04-22T11:37:20.457Z,72288.00
2023-04-22T11:38:20.464Z,75040.00
2023-04-22T11:39:20.447Z,71584.00
2023-04-22T11:40:28.999Z,71520.00
2023-04-22T11:41:21.444Z,70656.00
2023-04-22T11:42:20.413Z,71808.00
2023-04-22T11:43:20.394Z,68512.00
2023-04-22T11:44:20.384Z,69280.00
2023-04-22T11:45:20.391Z,64320.00
2023-04-22T11:46:21.846Z,67584.00
2023-04-22T11:47:20.424Z,63296.00
2023-04-22T11:48:20.354Z,64288.00
2023-04-22T11:49:20.350Z,68384.00
2023-04-22T11:50:20.320Z,70688.00
2023-04-22T11:51:20.331Z,68480.00
2023-04-22T11:52:21.293Z,69760.00
2023-04-22T11:53:20.291Z,67904.00
2023-04-22T11:54:20.282Z,69664.00
2023-04-22T11:55:20.263Z,74080.00
2023-04-22T11:56:20.263Z,76288.00
2023-04-22T11:57:20.249Z,72736.00
2023-04-22T11:58:20.238Z,74080.00
2023-04-22T11:59:20.230Z,49696.00
2023-04-22T12:00:20.330Z,35296.00
2023-04-22T12:01:20.200Z,78304.00
2023-04-22T12:02:20.256Z,67808.00
2023-04-22T12:03:20.381Z,77760.00
2023-04-22T12:04:20.191Z,74432.00
2023-04-22T12:05:20.199Z,73088.00
2023-04-22T12:06:20.152Z,75904.00
2023-04-22T12:07:20.166Z,74848.00
2023-04-22T12:08:20.136Z,74592.00
2023-04-22T12:09:20.117Z,76128.00
2023-04-22T12:10:20.115Z,75456.00
2023-04-22T12:11:20.112Z,78688.00
2023-04-22T12:12:20.133Z,75168.00
2023-04-22T12:13:20.089Z,72160.00
2023-04-22T12:14:20.073Z,72608.00
2023-04-22T12:15:20.058Z,69472.00
2023-04-22T12:16:20.250Z,68288.00
2023-04-22T12:17:20.112Z,70016.00